Nyk Romulus — 9V7644 — position and weather

sailwx.info

Track history (hours):
 
Tides and Currents Weather Stations Pressure Air Temp Water Temp Dewpoint Dewpoint Depression Visibility Wind Speed Wind Dir Waves Ship Positions

Nyk Romulus

Last reported at 2017-Dec-11 09:20 UTC. Time now 2017-Dec-14 16:48 UTC.
Position N 38°56' W 124°05'.

Length 294 m; draft 8.7 m.

Type: Cargo ship. MMSI: 563079000.

Date/timePositionNaut miles runAvg speedWind from/ knotsBaromVisibWave heightAir tempDewpointWater temp
2017-Dec-11 09:20N 38°56' W 124°05'720.5
2017-Dec-11 09:00N 38°49' W 124°01'1020.3
2017-Dec-11 08:30N 38°42' W 123°53'1019.8
2017-Dec-11 08:00N 38°34' W 123°45'1020.4
2017-Dec-11 07:30N 38°26' W 123°37'1020.5
2017-Dec-11 07:00N 38°18' W 123°29'1020.3
2017-Dec-11 06:30N 38°10' W 123°21'1020.0
2017-Dec-11 06:00N 38°02' W 123°13'1019.9
2017-Dec-11 05:30N 37°56' W 123°03'1020.5
2017-Dec-11 05:00N 37°51' W 122°52'917.7
2017-Dec-11 04:31N 37°46' W 122°42'713.5
2017-Dec-11 04:01N 37°47' W 122°34'714.7
2017-Dec-11 03:30N 37°50' W 122°25'510.7
2017-Dec-11 03:01N 37°48' W 122°19'1 2.9
2017-Dec-11 02:30N 37°48' W 122°17'1 2.7
2017-Dec-11 02:00N 37°48' W 122°19'0 0.2
2017-Dec-11 01:30N 37°48' W 122°19'0 0.0
2017-Dec-11 01:00N 37°48' W 122°19'0 0.0
2017-Dec-11 00:30N 37°48' W 122°19'0 0.0
2017-Dec-11 00:00N 37°48' W 122°19'0 0.0
2017-Dec-10 23:30N 37°48' W 122°19'0 0.0
2017-Dec-10 23:00N 37°48' W 122°19'0 0.0
2017-Dec-10 22:30N 37°48' W 122°19'0 0.0
2017-Dec-10 22:00N 37°48' W 122°19'0 0.0
2017-Dec-10 21:30N 37°48' W 122°19'0 0.0
2017-Dec-10 21:00N 37°48' W 122°19'0 0.0
2017-Dec-10 20:30N 37°48' W 122°19'0 0.0
2017-Dec-10 20:00N 37°48' W 122°19'0 0.0
2017-Dec-10 19:30N 37°48' W 122°19'0 0.0
2017-Dec-10 19:00N 37°48' W 122°19'0 0.0
2017-Dec-10 18:30N 37°48' W 122°19'0 0.0
2017-Dec-10 18:00N 37°48' W 122°19'0 0.0
2017-Dec-10 17:30N 37°48' W 122°19'0 0.0
2017-Dec-10 17:00N 37°48' W 122°19'0 0.0
2017-Dec-10 16:30N 37°48' W 122°19'0 0.0
2017-Dec-10 16:00N 37°48' W 122°19'1 1.3
2017-Dec-10 15:30N 37°48' W 122°20'3 7.0
2017-Dec-10 15:01N 37°49' W 122°24'2 4.0
2017-Dec-10 14:31N 37°49' W 122°27'2 3.0
2017-Dec-10 14:00N 37°49' W 122°29'4 7.1
2017-Dec-10 13:31N 37°47' W 122°33'612.4
2017-Dec-10 13:00N 37°45' W 122°40'3 6.9
2017-Dec-10 12:30N 37°41' W 122°41'4 8.2
2017-Dec-10 12:01N 37°37' W 122°40'4 7.9
2017-Dec-10 11:31N 37°33' W 122°40'4 7.4
2017-Dec-10 11:00N 37°29' W 122°40'4 7.1
2017-Dec-10 10:30N 37°26' W 122°40'713.4
2017-Dec-10 10:00N 37°19' W 122°40'816.2
2017-Dec-10 09:30N 37°11' W 122°38'815.8
2017-Dec-10 09:00N 37°04' W 122°36'815.8
2017-Dec-10 08:30N 36°56' W 122°34'815.6
2017-Dec-10 08:00N 36°48' W 122°32'815.2
2017-Dec-10 07:30N 36°41' W 122°28'815.4
2017-Dec-10 07:00N 36°34' W 122°25'815.4
2017-Dec-10 06:30N 36°27' W 122°21'815.6
2017-Dec-10 06:00N 36°20' W 122°18'815.4
2017-Dec-10 05:30N 36°12' W 122°14'917.1
2017-Dec-10 05:00N 36°04' W 122°10'1019.8
2017-Dec-10 04:30N 35°55' W 122°05'1020.0
2017-Dec-10 04:00N 35°46' W 122°01'1020.1
2017-Dec-10 03:30N 35°38' W 121°54'1019.8
2017-Dec-10 03:00N 35°30' W 121°47'1019.7
2017-Dec-10 02:30N 35°22' W 121°40'1020.0
2017-Dec-10 02:00N 35°13' W 121°32'1019.9
2017-Dec-10 01:30N 35°05' W 121°26'1019.8
2017-Dec-10 01:00N 34°57' W 121°19'1019.9
2017-Dec-10 00:30N 34°49' W 121°12'1019.6
2017-Dec-09 23:59N 34°41' W 121°04'919.4
2017-Dec-09 23:30N 34°34' W 120°57'1020.0
2017-Dec-09 23:00N 34°26' W 120°50'1019.6
2017-Dec-09 22:30N 34°23' W 120°38'1119.7
2017-Dec-09 21:56N 34°20' W 120°25'920.1
2017-Dec-09 21:30N 34°18' W 120°15'1020.1
2017-Dec-09 21:00N 34°15' W 120°03'1120.4
2017-Dec-09 20:27N 34°12' W 119°50'920.5
2017-Dec-09 20:00N 34°10' W 119°39'1020.5
2017-Dec-09 19:30N 34°07' W 119°27'1020.8
2017-Dec-09 19:00N 34°04' W 119°16'1019.1
2017-Dec-09 18:30N 33°60' W 119°05'612.7
2017-Dec-09 18:00N 33°56' W 118°59'611.4
2017-Dec-09 17:29N 33°53' W 118°52'611.7
2017-Dec-09 16:59N 33°51' W 118°46'611.5
2017-Dec-09 16:28N 33°48' W 118°40'511.9
2017-Dec-09 16:00N 33°45' W 118°34'611.8
2017-Dec-09 15:30N 33°42' W 118°28'611.6
2017-Dec-09 15:00N 33°39' W 118°22'611.0
2017-Dec-09 14:30N 33°38' W 118°16'5 9.8
2017-Dec-09 14:00N 33°42' W 118°11'3 5.6
2017-Dec-09 13:30N 33°45' W 118°12'0 0.3
2017-Dec-09 12:58N 33°45' W 118°12'0 0.0
2017-Dec-09 11:30N 33°45' W 118°12'0 0.0
2017-Dec-09 10:48N 33°45' W 118°12'0 0.0
2017-Dec-09 09:36N 33°45' W 118°12'0 0.0
2017-Dec-09 09:30N 33°45' W 118°12'0 0.0
2017-Dec-09 09:00N 33°45' W 118°12'0 0.0
2017-Dec-09 08:25N 33°45' W 118°12'0 0.0
2017-Dec-09 08:00N 33°45' W 118°12'0 0.0
2017-Dec-09 07:18N 33°45' W 118°12'0 0.0
2017-Dec-09 07:01N 33°45' W 118°12'0 0.0
2017-Dec-09 06:31N 33°45' W 118°12'0 0.0
2017-Dec-09 06:00N 33°45' W 118°12'6 0.3
2017-Dec-08 13:30N 33°39' W 118°11'8 6.9
2017-Dec-08 12:23N 33°32' W 118°08'19 8.6
2017-Dec-08 10:13N 33°14' W 118°00'210.7
2017-Dec-08 10:00N 33°12' W 117°59'610.9
2017-Dec-08 09:26N 33°07' W 117°56'511.2
2017-Dec-08 09:00N 33°02' W 117°56'611.1
2017-Dec-08 08:30N 32°56' W 117°55'510.9
2017-Dec-08 08:00N 32°51' W 117°54'511.0
2017-Dec-08 07:30N 32°46' W 117°52'510.9
2017-Dec-08 07:01N 32°41' W 117°50'713.5
2017-Dec-08 06:30N 32°34' W 117°48'816.2
2017-Dec-08 06:00N 32°27' W 117°44'  
Track history (hours):
 
Tides and Currents Weather Stations Pressure Air Temp Water Temp Dewpoint Dewpoint Depression Visibility Wind Speed Wind Dir Waves Ship Positions

Nyk Romulus

Last reported at 2017-Dec-11 09:20 UTC. Time now 2017-Dec-14 16:48 UTC.
Position N 38°56' W 124°05'.

Length 294 m; draft 8.7 m.

Type: Cargo ship. MMSI: 563079000.

Date/timePositionNaut miles runAvg speedWind from/ knotsBaromVisibWave heightAir tempDewpointWater temp
2017-Dec-11 09:20N 38°56' W 124°05'720.5
2017-Dec-11 09:00N 38°49' W 124°01'1020.3
2017-Dec-11 08:30N 38°42' W 123°53'1019.8
2017-Dec-11 08:00N 38°34' W 123°45'1020.4
2017-Dec-11 07:30N 38°26' W 123°37'1020.5
2017-Dec-11 07:00N 38°18' W 123°29'1020.3
2017-Dec-11 06:30N 38°10' W 123°21'1020.0
2017-Dec-11 06:00N 38°02' W 123°13'1019.9
2017-Dec-11 05:30N 37°56' W 123°03'1020.5
2017-Dec-11 05:00N 37°51' W 122°52'917.7
2017-Dec-11 04:31N 37°46' W 122°42'713.5
2017-Dec-11 04:01N 37°47' W 122°34'714.7
2017-Dec-11 03:30N 37°50' W 122°25'510.7
2017-Dec-11 03:01N 37°48' W 122°19'1 2.9
2017-Dec-11 02:30N 37°48' W 122°17'1 2.7
2017-Dec-11 02:00N 37°48' W 122°19'0 0.2
2017-Dec-11 01:30N 37°48' W 122°19'0 0.0
2017-Dec-11 01:00N 37°48' W 122°19'0 0.0
2017-Dec-11 00:30N 37°48' W 122°19'0 0.0
2017-Dec-11 00:00N 37°48' W 122°19'0 0.0
2017-Dec-10 23:30N 37°48' W 122°19'0 0.0
2017-Dec-10 23:00N 37°48' W 122°19'0 0.0
2017-Dec-10 22:30N 37°48' W 122°19'0 0.0
2017-Dec-10 22:00N 37°48' W 122°19'0 0.0
2017-Dec-10 21:30N 37°48' W 122°19'0 0.0
2017-Dec-10 21:00N 37°48' W 122°19'0 0.0
2017-Dec-10 20:30N 37°48' W 122°19'0 0.0
2017-Dec-10 20:00N 37°48' W 122°19'0 0.0
2017-Dec-10 19:30N 37°48' W 122°19'0 0.0
2017-Dec-10 19:00N 37°48' W 122°19'0 0.0
2017-Dec-10 18:30N 37°48' W 122°19'0 0.0
2017-Dec-10 18:00N 37°48' W 122°19'0 0.0
2017-Dec-10 17:30N 37°48' W 122°19'0 0.0
2017-Dec-10 17:00N 37°48' W 122°19'0 0.0
2017-Dec-10 16:30N 37°48' W 122°19'0 0.0
2017-Dec-10 16:00N 37°48' W 122°19'1 1.3
2017-Dec-10 15:30N 37°48' W 122°20'3 7.0
2017-Dec-10 15:01N 37°49' W 122°24'2 4.0
2017-Dec-10 14:31N 37°49' W 122°27'2 3.0
2017-Dec-10 14:00N 37°49' W 122°29'4 7.1
2017-Dec-10 13:31N 37°47' W 122°33'612.4
2017-Dec-10 13:00N 37°45' W 122°40'3 6.9
2017-Dec-10 12:30N 37°41' W 122°41'4 8.2
2017-Dec-10 12:01N 37°37' W 122°40'4 7.9
2017-Dec-10 11:31N 37°33' W 122°40'4 7.4
2017-Dec-10 11:00N 37°29' W 122°40'4 7.1
2017-Dec-10 10:30N 37°26' W 122°40'713.4
2017-Dec-10 10:00N 37°19' W 122°40'816.2
2017-Dec-10 09:30N 37°11' W 122°38'815.8
2017-Dec-10 09:00N 37°04' W 122°36'815.8
2017-Dec-10 08:30N 36°56' W 122°34'815.6
2017-Dec-10 08:00N 36°48' W 122°32'815.2
2017-Dec-10 07:30N 36°41' W 122°28'815.4
2017-Dec-10 07:00N 36°34' W 122°25'815.4
2017-Dec-10 06:30N 36°27' W 122°21'815.6
2017-Dec-10 06:00N 36°20' W 122°18'815.4
2017-Dec-10 05:30N 36°12' W 122°14'917.1
2017-Dec-10 05:00N 36°04' W 122°10'1019.8
2017-Dec-10 04:30N 35°55' W 122°05'1020.0
2017-Dec-10 04:00N 35°46' W 122°01'1020.1
2017-Dec-10 03:30N 35°38' W 121°54'1019.8
2017-Dec-10 03:00N 35°30' W 121°47'1019.7
2017-Dec-10 02:30N 35°22' W 121°40'1020.0
2017-Dec-10 02:00N 35°13' W 121°32'1019.9
2017-Dec-10 01:30N 35°05' W 121°26'1019.8
2017-Dec-10 01:00N 34°57' W 121°19'1019.9
2017-Dec-10 00:30N 34°49' W 121°12'1019.6
2017-Dec-09 23:59N 34°41' W 121°04'919.4
2017-Dec-09 23:30N 34°34' W 120°57'1020.0
2017-Dec-09 23:00N 34°26' W 120°50'1019.6
2017-Dec-09 22:30N 34°23' W 120°38'1119.7
2017-Dec-09 21:56N 34°20' W 120°25'920.1
2017-Dec-09 21:30N 34°18' W 120°15'1020.1
2017-Dec-09 21:00N 34°15' W 120°03'1120.4
2017-Dec-09 20:27N 34°12' W 119°50'920.5
2017-Dec-09 20:00N 34°10' W 119°39'1020.5
2017-Dec-09 19:30N 34°07' W 119°27'1020.8
2017-Dec-09 19:00N 34°04' W 119°16'1019.1
2017-Dec-09 18:30N 33°60' W 119°05'612.7
2017-Dec-09 18:00N 33°56' W 118°59'611.4
2017-Dec-09 17:29N 33°53' W 118°52'611.7
2017-Dec-09 16:59N 33°51' W 118°46'611.5
2017-Dec-09 16:28N 33°48' W 118°40'511.9
2017-Dec-09 16:00N 33°45' W 118°34'611.8
2017-Dec-09 15:30N 33°42' W 118°28'611.6
2017-Dec-09 15:00N 33°39' W 118°22'611.0
2017-Dec-09 14:30N 33°38' W 118°16'5 9.8
2017-Dec-09 14:00N 33°42' W 118°11'3 5.6
2017-Dec-09 13:30N 33°45' W 118°12'0 0.3
2017-Dec-09 12:58N 33°45' W 118°12'0 0.0
2017-Dec-09 11:30N 33°45' W 118°12'0 0.0
2017-Dec-09 10:48N 33°45' W 118°12'0 0.0
2017-Dec-09 09:36N 33°45' W 118°12'0 0.0
2017-Dec-09 09:30N 33°45' W 118°12'0 0.0
2017-Dec-09 09:00N 33°45' W 118°12'0 0.0
2017-Dec-09 08:25N 33°45' W 118°12'0 0.0
2017-Dec-09 08:00N 33°45' W 118°12'0 0.0
2017-Dec-09 07:18N 33°45' W 118°12'0 0.0
2017-Dec-09 07:01N 33°45' W 118°12'0 0.0
2017-Dec-09 06:31N 33°45' W 118°12'0 0.0
2017-Dec-09 06:00N 33°45' W 118°12'6 0.3
2017-Dec-08 13:30N 33°39' W 118°11'8 6.9
2017-Dec-08 12:23N 33°32' W 118°08'19 8.6
2017-Dec-08 10:13N 33°14' W 118°00'210.7
2017-Dec-08 10:00N 33°12' W 117°59'610.9
2017-Dec-08 09:26N 33°07' W 117°56'511.2
2017-Dec-08 09:00N 33°02' W 117°56'611.1
2017-Dec-08 08:30N 32°56' W 117°55'510.9
2017-Dec-08 08:00N 32°51' W 117°54'511.0
2017-Dec-08 07:30N 32°46' W 117°52'510.9
2017-Dec-08 07:01N 32°41' W 117°50'713.5
2017-Dec-08 06:30N 32°34' W 117°48'816.2
2017-Dec-08 06:00N 32°27' W 117°44'  

Dump ship's entire track history